sensor_id;sensor_type;location;lat;lon;timestamp;P1;durP1;ratioP1;P2;durP2;ratioP2
38609;SDS011;24367;51.640;9.566;2022-12-31T00:00:01;2.30;;;0.98;;
38609;SDS011;24367;51.640;9.566;2022-12-31T00:02:30;2.63;;;0.75;;
38609;SDS011;24367;51.640;9.566;2022-12-31T00:04:58;2.38;;;0.80;;
38609;SDS011;24367;51.640;9.566;2022-12-31T00:07:24;2.13;;;0.93;;
38609;SDS011;24367;51.640;9.566;2022-12-31T00:09:51;2.17;;;0.80;;
38609;SDS011;24367;51.640;9.566;2022-12-31T00:12:17;1.40;;;0.77;;
38609;SDS011;24367;51.640;9.566;2022-12-31T00:14:43;3.08;;;0.88;;
38609;SDS011;24367;51.640;9.566;2022-12-31T00:17:10;2.50;;;1.20;;
38609;SDS011;24367;51.640;9.566;2022-12-31T00:19:36;2.92;;;0.80;;
38609;SDS011;24367;51.640;9.566;2022-12-31T00:22:04;3.08;;;0.70;;
38609;SDS011;24367;51.640;9.566;2022-12-31T00:24:31;2.47;;;0.77;;
38609;SDS011;24367;51.640;9.566;2022-12-31T00:26:59;2.28;;;0.90;;
38609;SDS011;24367;51.640;9.566;2022-12-31T00:29:26;5.85;;;0.98;;
38609;SDS011;24367;51.640;9.566;2022-12-31T00:31:52;2.03;;;0.90;;
38609;SDS011;24367;51.640;9.566;2022-12-31T00:34:20;1.17;;;0.70;;
38609;SDS011;24367;51.640;9.566;2022-12-31T00:36:46;3.63;;;0.80;;
38609;SDS011;24367;51.640;9.566;2022-12-31T00:39:14;3.35;;;1.02;;
38609;SDS011;24367;51.640;9.566;2022-12-31T00:41:41;2.15;;;0.52;;
38609;SDS011;24367;51.640;9.566;2022-12-31T00:44:09;2.15;;;0.80;;
38609;SDS011;24367;51.640;9.566;2022-12-31T00:46:36;3.28;;;0.70;;
38609;SDS011;24367;51.640;9.566;2022-12-31T00:49:02;1.90;;;0.80;;
38609;SDS011;24367;51.640;9.566;2022-12-31T00:51:29;4.45;;;1.05;;
38609;SDS011;24367;51.640;9.566;2022-12-31T00:53:56;2.47;;;0.90;;
38609;SDS011;24367;51.640;9.566;2022-12-31T00:56:26;4.55;;;1.08;;
38609;SDS011;24367;51.640;9.566;2022-12-31T00:58:54;2.20;;;1.02;;
38609;SDS011;24367;51.640;9.566;2022-12-31T01:01:22;2.40;;;0.80;;
38609;SDS011;24367;51.640;9.566;2022-12-31T01:03:53;5.57;;;0.90;;
38609;SDS011;24367;51.640;9.566;2022-12-31T01:06:22;2.05;;;0.80;;
38609;SDS011;24367;51.640;9.566;2022-12-31T01:08:51;2.28;;;0.70;;
38609;SDS011;24367;51.640;9.566;2022-12-31T01:11:20;1.42;;;0.80;;
38609;SDS011;24367;51.640;9.566;2022-12-31T01:13:50;3.20;;;0.70;;
38609;SDS011;24367;51.640;9.566;2022-12-31T01:16:25;1.30;;;0.70;;
38609;SDS011;24367;51.640;9.566;2022-12-31T01:18:56;2.33;;;0.50;;
38609;SDS011;24367;51.640;9.566;2022-12-31T01:21:26;1.10;;;0.68;;
38609;SDS011;24367;51.640;9.566;2022-12-31T01:23:56;1.40;;;0.73;;
38609;SDS011;24367;51.640;9.566;2022-12-31T01:26:25;1.67;;;0.90;;
38609;SDS011;24367;51.640;9.566;2022-12-31T01:28:55;1.75;;;0.70;;
38609;SDS011;24367;51.640;9.566;2022-12-31T01:31:24;2.00;;;0.70;;
38609;SDS011;24367;51.640;9.566;2022-12-31T01:33:52;1.58;;;0.68;;
38609;SDS011;24367;51.640;9.566;2022-12-31T01:36:21;1.63;;;0.75;;
38609;SDS011;24367;51.640;9.566;2022-12-31T01:38:48;2.35;;;0.77;;
38609;SDS011;24367;51.640;9.566;2022-12-31T01:41:15;2.65;;;0.70;;
38609;SDS011;24367;51.640;9.566;2022-12-31T01:43:44;1.60;;;0.70;;
38609;SDS011;24367;51.640;9.566;2022-12-31T01:46:16;3.28;;;0.90;;
38609;SDS011;24367;51.640;9.566;2022-12-31T01:48:44;3.33;;;0.80;;
38609;SDS011;24367;51.640;9.566;2022-12-31T01:51:12;5.18;;;0.80;;
38609;SDS011;24367;51.640;9.566;2022-12-31T01:53:39;7.40;;;1.10;;
38609;SDS011;24367;51.640;9.566;2022-12-31T01:56:05;2.40;;;0.80;;
38609;SDS011;24367;51.640;9.566;2022-12-31T01:58:34;2.67;;;0.70;;
38609;SDS011;24367;51.640;9.566;2022-12-31T02:01:03;2.15;;;0.73;;
38609;SDS011;24367;51.640;9.566;2022-12-31T02:03:31;1.33;;;0.60;;
38609;SDS011;24367;51.640;9.566;2022-12-31T02:06:00;1.90;;;0.65;;
38609;SDS011;24367;51.640;9.566;2022-12-31T02:08:30;1.30;;;0.70;;
38609;SDS011;24367;51.640;9.566;2022-12-31T02:10:56;1.80;;;0.57;;
38609;SDS011;24367;51.640;9.566;2022-12-31T02:13:23;2.33;;;0.80;;
38609;SDS011;24367;51.640;9.566;2022-12-31T02:15:50;2.22;;;0.80;;
38609;SDS011;24367;51.640;9.566;2022-12-31T02:18:23;4.30;;;0.80;;
38609;SDS011;24367;51.640;9.566;2022-12-31T02:23:48;3.05;;;0.60;;
38609;SDS011;24367;51.640;9.566;2022-12-31T02:26:30;1.98;;;0.80;;
38609;SDS011;24367;51.640;9.566;2022-12-31T02:29:12;2.00;;;0.77;;
38609;SDS011;24367;51.640;9.566;2022-12-31T02:31:54;1.75;;;0.65;;
38609;SDS011;24367;51.640;9.566;2022-12-31T02:34:24;1.17;;;0.50;;
38609;SDS011;24367;51.640;9.566;2022-12-31T02:36:53;2.47;;;0.70;;
38609;SDS011;24367;51.640;9.566;2022-12-31T02:39:20;1.25;;;0.70;;
38609;SDS011;24367;51.640;9.566;2022-12-31T02:41:47;2.33;;;0.80;;
38609;SDS011;24367;51.640;9.566;2022-12-31T02:44:20;4.03;;;0.80;;
38609;SDS011;24367;51.640;9.566;2022-12-31T02:46:48;1.40;;;0.80;;
38609;SDS011;24367;51.640;9.566;2022-12-31T02:49:25;1.48;;;0.63;;
38609;SDS011;24367;51.640;9.566;2022-12-31T02:51:56;1.17;;;0.60;;
38609;SDS011;24367;51.640;9.566;2022-12-31T02:54:27;0.93;;;0.50;;
38609;SDS011;24367;51.640;9.566;2022-12-31T02:56:59;1.55;;;0.65;;
38609;SDS011;24367;51.640;9.566;2022-12-31T02:59:31;1.52;;;0.75;;
38609;SDS011;24367;51.640;9.566;2022-12-31T03:02:18;1.65;;;0.75;;
38609;SDS011;24367;51.640;9.566;2022-12-31T03:04:47;1.23;;;0.60;;
38609;SDS011;24367;51.640;9.566;2022-12-31T03:07:17;1.58;;;0.77;;
38609;SDS011;24367;51.640;9.566;2022-12-31T03:09:45;3.80;;;0.52;;
38609;SDS011;24367;51.640;9.566;2022-12-31T03:12:12;1.77;;;0.77;;
38609;SDS011;24367;51.640;9.566;2022-12-31T03:14:57;1.52;;;0.82;;
38609;SDS011;24367;51.640;9.566;2022-12-31T03:17:25;0.85;;;0.60;;
38609;SDS011;24367;51.640;9.566;2022-12-31T03:19:52;1.58;;;0.60;;
38609;SDS011;24367;51.640;9.566;2022-12-31T03:22:37;1.15;;;0.57;;
38609;SDS011;24367;51.640;9.566;2022-12-31T03:25:06;1.70;;;0.70;;
38609;SDS011;24367;51.640;9.566;2022-12-31T03:27:53;1.58;;;0.50;;
38609;SDS011;24367;51.640;9.566;2022-12-31T03:30:20;1.65;;;0.63;;
38609;SDS011;24367;51.640;9.566;2022-12-31T03:32:48;1.65;;;0.60;;
38609;SDS011;24367;51.640;9.566;2022-12-31T03:35:17;1.50;;;0.63;;
38609;SDS011;24367;51.640;9.566;2022-12-31T03:37:45;1.15;;;0.60;;
38609;SDS011;24367;51.640;9.566;2022-12-31T03:40:12;1.30;;;0.63;;
38609;SDS011;24367;51.640;9.566;2022-12-31T03:42:39;1.83;;;0.50;;
38609;SDS011;24367;51.640;9.566;2022-12-31T03:45:06;1.27;;;0.57;;
38609;SDS011;24367;51.640;9.566;2022-12-31T03:47:34;1.88;;;0.73;;
38609;SDS011;24367;51.640;9.566;2022-12-31T03:50:02;1.10;;;0.50;;
38609;SDS011;24367;51.640;9.566;2022-12-31T03:52:28;1.63;;;0.50;;
38609;SDS011;24367;51.640;9.566;2022-12-31T03:54:55;3.25;;;0.80;;
38609;SDS011;24367;51.640;9.566;2022-12-31T03:57:21;0.93;;;0.50;;
38609;SDS011;24367;51.640;9.566;2022-12-31T03:59:48;1.13;;;0.50;;
38609;SDS011;24367;51.640;9.566;2022-12-31T04:02:16;1.20;;;0.60;;
38609;SDS011;24367;51.640;9.566;2022-12-31T04:04:42;1.65;;;0.70;;
38609;SDS011;24367;51.640;9.566;2022-12-31T04:07:10;0.82;;;0.52;;
38609;SDS011;24367;51.640;9.566;2022-12-31T04:09:37;1.17;;;0.60;;
38609;SDS011;24367;51.640;9.566;2022-12-31T04:12:04;1.30;;;0.50;;
38609;SDS011;24367;51.640;9.566;2022-12-31T04:14:31;1.65;;;0.73;;
38609;SDS011;24367;51.640;9.566;2022-12-31T04:16:57;0.80;;;0.47;;
38609;SDS011;24367;51.640;9.566;2022-12-31T04:19:23;0.85;;;0.40;;
38609;SDS011;24367;51.640;9.566;2022-12-31T04:21:50;1.02;;;0.35;;
38609;SDS011;24367;51.640;9.566;2022-12-31T04:24:18;2.92;;;0.50;;
38609;SDS011;24367;51.640;9.566;2022-12-31T04:26:44;1.20;;;0.45;;
38609;SDS011;24367;51.640;9.566;2022-12-31T04:29:10;1.00;;;0.50;;
38609;SDS011;24367;51.640;9.566;2022-12-31T04:31:37;1.00;;;0.50;;
38609;SDS011;24367;51.640;9.566;2022-12-31T04:34:03;1.27;;;0.52;;
38609;SDS011;24367;51.640;9.566;2022-12-31T04:36:30;1.35;;;0.52;;
38609;SDS011;24367;51.640;9.566;2022-12-31T04:38:56;0.55;;;0.30;;
38609;SDS011;24367;51.640;9.566;2022-12-31T04:41:24;1.15;;;0.50;;
38609;SDS011;24367;51.640;9.566;2022-12-31T04:43:51;1.10;;;0.50;;
38609;SDS011;24367;51.640;9.566;2022-12-31T04:46:20;1.00;;;0.52;;
38609;SDS011;24367;51.640;9.566;2022-12-31T04:48:48;2.60;;;0.60;;
38609;SDS011;24367;51.640;9.566;2022-12-31T04:51:14;1.38;;;0.68;;
38609;SDS011;24367;51.640;9.566;2022-12-31T04:53:42;1.52;;;0.50;;
38609;SDS011;24367;51.640;9.566;2022-12-31T04:56:08;0.80;;;0.45;;
38609;SDS011;24367;51.640;9.566;2022-12-31T04:58:36;1.38;;;0.40;;
38609;SDS011;24367;51.640;9.566;2022-12-31T05:01:03;0.85;;;0.45;;
38609;SDS011;24367;51.640;9.566;2022-12-31T05:03:30;0.70;;;0.50;;
38609;SDS011;24367;51.640;9.566;2022-12-31T05:05:59;1.25;;;0.63;;
38609;SDS011;24367;51.640;9.566;2022-12-31T05:08:26;1.52;;;0.80;;
38609;SDS011;24367;51.640;9.566;2022-12-31T05:10:53;0.88;;;0.50;;
38609;SDS011;24367;51.640;9.566;2022-12-31T05:13:21;1.63;;;0.50;;
38609;SDS011;24367;51.640;9.566;2022-12-31T05:15:49;0.77;;;0.50;;
38609;SDS011;24367;51.640;9.566;2022-12-31T05:18:15;0.82;;;0.40;;
38609;SDS011;24367;51.640;9.566;2022-12-31T05:20:42;0.93;;;0.60;;
38609;SDS011;24367;51.640;9.566;2022-12-31T05:23:08;1.13;;;0.70;;
38609;SDS011;24367;51.640;9.566;2022-12-31T05:25:35;1.42;;;0.70;;
38609;SDS011;24367;51.640;9.566;2022-12-31T05:28:02;1.10;;;0.40;;
38609;SDS011;24367;51.640;9.566;2022-12-31T05:30:29;1.00;;;0.40;;
38609;SDS011;24367;51.640;9.566;2022-12-31T05:32:56;1.10;;;0.50;;
38609;SDS011;24367;51.640;9.566;2022-12-31T05:35:23;0.90;;;0.50;;
38609;SDS011;24367;51.640;9.566;2022-12-31T05:37:49;0.80;;;0.50;;
38609;SDS011;24367;51.640;9.566;2022-12-31T05:40:16;0.60;;;0.40;;
38609;SDS011;24367;51.640;9.566;2022-12-31T05:42:42;0.80;;;0.38;;
38609;SDS011;24367;51.640;9.566;2022-12-31T05:45:09;1.83;;;0.60;;
38609;SDS011;24367;51.640;9.566;2022-12-31T05:47:37;0.80;;;0.50;;
38609;SDS011;24367;51.640;9.566;2022-12-31T05:50:06;1.80;;;0.40;;
38609;SDS011;24367;51.640;9.566;2022-12-31T05:52:33;1.85;;;0.50;;
38609;SDS011;24367;51.640;9.566;2022-12-31T05:54:59;0.90;;;0.50;;
38609;SDS011;24367;51.640;9.566;2022-12-31T05:57:25;0.82;;;0.43;;
38609;SDS011;24367;51.640;9.566;2022-12-31T05:59:52;1.00;;;0.50;;
38609;SDS011;24367;51.640;9.566;2022-12-31T06:02:18;1.77;;;0.60;;
38609;SDS011;24367;51.640;9.566;2022-12-31T06:04:45;0.98;;;0.40;;
38609;SDS011;24367;51.640;9.566;2022-12-31T06:07:14;1.27;;;0.50;;
38609;SDS011;24367;51.640;9.566;2022-12-31T06:09:40;0.70;;;0.40;;
38609;SDS011;24367;51.640;9.566;2022-12-31T06:12:07;0.80;;;0.50;;
38609;SDS011;24367;51.640;9.566;2022-12-31T06:14:33;1.67;;;0.68;;
38609;SDS011;24367;51.640;9.566;2022-12-31T06:17:00;0.85;;;0.40;;
38609;SDS011;24367;51.640;9.566;2022-12-31T06:19:27;1.17;;;0.30;;
38609;SDS011;24367;51.640;9.566;2022-12-31T06:21:53;0.63;;;0.45;;
38609;SDS011;24367;51.640;9.566;2022-12-31T06:24:21;1.15;;;0.40;;
38609;SDS011;24367;51.640;9.566;2022-12-31T06:26:47;0.90;;;0.40;;
38609;SDS011;24367;51.640;9.566;2022-12-31T06:29:14;0.80;;;0.40;;
38609;SDS011;24367;51.640;9.566;2022-12-31T06:31:40;0.57;;;0.38;;
38609;SDS011;24367;51.640;9.566;2022-12-31T06:34:06;1.48;;;0.50;;
38609;SDS011;24367;51.640;9.566;2022-12-31T06:36:33;1.13;;;0.57;;
38609;SDS011;24367;51.640;9.566;2022-12-31T06:39:00;1.02;;;0.50;;
38609;SDS011;24367;51.640;9.566;2022-12-31T06:41:27;0.60;;;0.40;;
38609;SDS011;24367;51.640;9.566;2022-12-31T06:43:54;0.73;;;0.40;;
38609;SDS011;24367;51.640;9.566;2022-12-31T06:46:20;1.13;;;0.50;;
38609;SDS011;24367;51.640;9.566;2022-12-31T06:48:46;0.57;;;0.30;;
38609;SDS011;24367;51.640;9.566;2022-12-31T06:51:13;0.77;;;0.47;;
38609;SDS011;24367;51.640;9.566;2022-12-31T06:53:41;0.93;;;0.57;;
38609;SDS011;24367;51.640;9.566;2022-12-31T06:56:08;0.57;;;0.38;;
38609;SDS011;24367;51.640;9.566;2022-12-31T06:58:41;1.02;;;0.50;;
38609;SDS011;24367;51.640;9.566;2022-12-31T07:01:11;0.68;;;0.30;;
38609;SDS011;24367;51.640;9.566;2022-12-31T07:03:54;0.90;;;0.57;;
38609;SDS011;24367;51.640;9.566;2022-12-31T07:06:24;0.68;;;0.40;;
38609;SDS011;24367;51.640;9.566;2022-12-31T07:08:54;0.93;;;0.50;;
38609;SDS011;24367;51.640;9.566;2022-12-31T07:11:24;2.08;;;0.50;;
38609;SDS011;24367;51.640;9.566;2022-12-31T07:13:55;0.63;;;0.32;;
38609;SDS011;24367;51.640;9.566;2022-12-31T07:16:39;1.35;;;0.55;;
38609;SDS011;24367;51.640;9.566;2022-12-31T07:19:20;0.95;;;0.40;;
38609;SDS011;24367;51.640;9.566;2022-12-31T07:21:50;0.60;;;0.32;;
38609;SDS011;24367;51.640;9.566;2022-12-31T07:24:18;0.47;;;0.30;;
38609;SDS011;24367;51.640;9.566;2022-12-31T07:26:49;0.95;;;0.45;;
38609;SDS011;24367;51.640;9.566;2022-12-31T07:29:22;1.95;;;0.40;;
38609;SDS011;24367;51.640;9.566;2022-12-31T07:31:55;0.52;;;0.30;;
38609;SDS011;24367;51.640;9.566;2022-12-31T07:34:29;0.77;;;0.50;;
38609;SDS011;24367;51.640;9.566;2022-12-31T07:37:05;0.68;;;0.30;;
38609;SDS011;24367;51.640;9.566;2022-12-31T07:39:34;0.65;;;0.38;;
38609;SDS011;24367;51.640;9.566;2022-12-31T07:42:08;0.95;;;0.40;;
38609;SDS011;24367;51.640;9.566;2022-12-31T07:44:41;0.50;;;0.30;;
38609;SDS011;24367;51.640;9.566;2022-12-31T07:47:19;0.77;;;0.40;;
38609;SDS011;24367;51.640;9.566;2022-12-31T07:49:46;2.28;;;0.35;;
38609;SDS011;24367;51.640;9.566;2022-12-31T07:52:13;0.70;;;0.30;;
38609;SDS011;24367;51.640;9.566;2022-12-31T07:54:40;0.85;;;0.40;;
38609;SDS011;24367;51.640;9.566;2022-12-31T07:57:07;0.85;;;0.40;;
38609;SDS011;24367;51.640;9.566;2022-12-31T07:59:36;1.40;;;0.40;;
38609;SDS011;24367;51.640;9.566;2022-12-31T08:02:12;1.95;;;0.30;;
38609;SDS011;24367;51.640;9.566;2022-12-31T08:04:45;0.60;;;0.30;;
38609;SDS011;24367;51.640;9.566;2022-12-31T08:09:47;0.80;;;0.40;;
38609;SDS011;24367;51.640;9.566;2022-12-31T08:12:21;1.08;;;0.40;;
38609;SDS011;24367;51.640;9.566;2022-12-31T08:14:50;0.77;;;0.40;;
38609;SDS011;24367;51.640;9.566;2022-12-31T08:17:17;0.65;;;0.40;;
38609;SDS011;24367;51.640;9.566;2022-12-31T08:19:44;1.35;;;0.40;;
38609;SDS011;24367;51.640;9.566;2022-12-31T08:22:23;0.80;;;0.50;;
38609;SDS011;24367;51.640;9.566;2022-12-31T08:25:06;0.85;;;0.40;;
38609;SDS011;24367;51.640;9.566;2022-12-31T08:27:40;0.57;;;0.32;;
38609;SDS011;24367;51.640;9.566;2022-12-31T08:30:14;0.60;;;0.35;;
38609;SDS011;24367;51.640;9.566;2022-12-31T08:32:42;0.60;;;0.40;;
38609;SDS011;24367;51.640;9.566;2022-12-31T08:35:15;0.80;;;0.40;;
38609;SDS011;24367;51.640;9.566;2022-12-31T08:37:46;0.68;;;0.32;;
38609;SDS011;24367;51.640;9.566;2022-12-31T08:40:18;0.93;;;0.40;;
38609;SDS011;24367;51.640;9.566;2022-12-31T08:42:53;0.40;;;0.30;;
38609;SDS011;24367;51.640;9.566;2022-12-31T08:45:40;1.20;;;0.45;;
38609;SDS011;24367;51.640;9.566;2022-12-31T08:48:10;1.13;;;0.50;;
38609;SDS011;24367;51.640;9.566;2022-12-31T08:50:40;0.65;;;0.40;;
38609;SDS011;24367;51.640;9.566;2022-12-31T08:53:07;1.90;;;0.50;;
38609;SDS011;24367;51.640;9.566;2022-12-31T08:55:34;1.00;;;0.50;;
38609;SDS011;24367;51.640;9.566;2022-12-31T08:58:06;1.65;;;0.40;;
38609;SDS011;24367;51.640;9.566;2022-12-31T09:00:35;1.00;;;0.60;;
38609;SDS011;24367;51.640;9.566;2022-12-31T09:03:20;0.90;;;0.43;;
38609;SDS011;24367;51.640;9.566;2022-12-31T09:05:52;1.92;;;0.40;;
38609;SDS011;24367;51.640;9.566;2022-12-31T09:08:26;1.52;;;0.35;;
38609;SDS011;24367;51.640;9.566;2022-12-31T09:10:56;0.88;;;0.40;;
38609;SDS011;24367;51.640;9.566;2022-12-31T09:13:28;0.57;;;0.35;;
38609;SDS011;24367;51.640;9.566;2022-12-31T09:16:00;2.58;;;0.50;;
38609;SDS011;24367;51.640;9.566;2022-12-31T09:18:32;2.22;;;0.50;;
38609;SDS011;24367;51.640;9.566;2022-12-31T09:20:59;1.40;;;0.63;;
38609;SDS011;24367;51.640;9.566;2022-12-31T09:23:26;2.15;;;0.50;;
38609;SDS011;24367;51.640;9.566;2022-12-31T09:25:55;1.42;;;0.40;;
38609;SDS011;24367;51.640;9.566;2022-12-31T09:28:30;2.75;;;0.60;;
38609;SDS011;24367;51.640;9.566;2022-12-31T09:31:03;1.70;;;0.65;;
38609;SDS011;24367;51.640;9.566;2022-12-31T09:33:37;2.83;;;0.70;;
38609;SDS011;24367;51.640;9.566;2022-12-31T09:36:08;3.03;;;1.02;;
38609;SDS011;24367;51.640;9.566;2022-12-31T09:38:36;2.67;;;0.90;;
38609;SDS011;24367;51.640;9.566;2022-12-31T09:41:10;3.92;;;0.82;;
38609;SDS011;24367;51.640;9.566;2022-12-31T09:49:53;3.20;;;1.10;;
38609;SDS011;24367;51.640;9.566;2022-12-31T09:52:31;6.53;;;1.25;;
38609;SDS011;24367;51.640;9.566;2022-12-31T09:55:12;3.35;;;1.10;;
38609;SDS011;24367;51.640;9.566;2022-12-31T09:58:01;2.60;;;1.02;;
38609;SDS011;24367;51.640;9.566;2022-12-31T10:00:35;5.32;;;0.77;;
38609;SDS011;24367;51.640;9.566;2022-12-31T10:03:09;4.30;;;1.02;;
38609;SDS011;24367;51.640;9.566;2022-12-31T10:05:49;4.50;;;0.90;;
38609;SDS011;24367;51.640;9.566;2022-12-31T10:08:27;4.80;;;1.05;;
38609;SDS011;24367;51.640;9.566;2022-12-31T10:10:57;3.42;;;0.80;;
38609;SDS011;24367;51.640;9.566;2022-12-31T10:13:31;3.25;;;0.77;;
38609;SDS011;24367;51.640;9.566;2022-12-31T10:22:01;3.40;;;0.90;;
38609;SDS011;24367;51.640;9.566;2022-12-31T10:24:55;4.90;;;0.98;;
38609;SDS011;24367;51.640;9.566;2022-12-31T10:27:28;3.88;;;0.90;;
38609;SDS011;24367;51.640;9.566;2022-12-31T10:30:04;3.53;;;0.70;;
38609;SDS011;24367;51.640;9.566;2022-12-31T10:32:41;4.55;;;1.00;;
38609;SDS011;24367;51.640;9.566;2022-12-31T10:35:13;3.90;;;0.80;;
38609;SDS011;24367;51.640;9.566;2022-12-31T10:37:57;9.00;;;1.00;;
38609;SDS011;24367;51.640;9.566;2022-12-31T10:40:34;3.55;;;0.75;;
38609;SDS011;24367;51.640;9.566;2022-12-31T10:43:19;1.90;;;0.77;;
38609;SDS011;24367;51.640;9.566;2022-12-31T10:46:06;10.50;;;0.98;;
38609;SDS011;24367;51.640;9.566;2022-12-31T10:49:09;10.75;;;1.02;;
38609;SDS011;24367;51.640;9.566;2022-12-31T10:57:27;7.78;;;1.00;;
38609;SDS011;24367;51.640;9.566;2022-12-31T11:00:11;5.22;;;1.02;;
38609;SDS011;24367;51.640;9.566;2022-12-31T11:11:36;6.38;;;1.00;;
38609;SDS011;24367;51.640;9.566;2022-12-31T11:14:25;6.57;;;1.48;;
38609;SDS011;24367;51.640;9.566;2022-12-31T11:17:02;22.30;;;1.77;;
38609;SDS011;24367;51.640;9.566;2022-12-31T11:19:39;9.88;;;1.27;;
38609;SDS011;24367;51.640;9.566;2022-12-31T11:22:22;11.93;;;1.58;;
38609;SDS011;24367;51.640;9.566;2022-12-31T11:25:00;12.93;;;1.90;;
38609;SDS011;24367;51.640;9.566;2022-12-31T11:27:45;22.27;;;2.45;;
38609;SDS011;24367;51.640;9.566;2022-12-31T11:30:20;21.00;;;2.50;;
38609;SDS011;24367;51.640;9.566;2022-12-31T11:32:53;10.68;;;1.92;;
38609;SDS011;24367;51.640;9.566;2022-12-31T11:35:27;9.98;;;1.77;;
38609;SDS011;24367;51.640;9.566;2022-12-31T11:37:59;14.77;;;2.40;;
38609;SDS011;24367;51.640;9.566;2022-12-31T11:40:42;5.50;;;1.00;;
38609;SDS011;24367;51.640;9.566;2022-12-31T11:43:21;10.57;;;1.50;;
38609;SDS011;24367;51.640;9.566;2022-12-31T11:46:00;10.90;;;1.30;;
38609;SDS011;24367;51.640;9.566;2022-12-31T11:48:34;7.25;;;1.45;;
38609;SDS011;24367;51.640;9.566;2022-12-31T11:51:12;10.93;;;1.50;;
38609;SDS011;24367;51.640;9.566;2022-12-31T11:53:52;9.73;;;1.45;;
38609;SDS011;24367;51.640;9.566;2022-12-31T11:56:39;6.43;;;1.02;;
38609;SDS011;24367;51.640;9.566;2022-12-31T11:59:08;10.50;;;1.70;;
38609;SDS011;24367;51.640;9.566;2022-12-31T12:01:40;9.35;;;1.55;;
38609;SDS011;24367;51.640;9.566;2022-12-31T12:04:10;5.57;;;1.40;;
38609;SDS011;24367;51.640;9.566;2022-12-31T12:06:38;9.10;;;1.42;;
38609;SDS011;24367;51.640;9.566;2022-12-31T12:09:09;8.95;;;1.35;;
38609;SDS011;24367;51.640;9.566;2022-12-31T12:11:41;6.28;;;1.35;;
38609;SDS011;24367;51.640;9.566;2022-12-31T12:14:18;7.50;;;1.40;;
38609;SDS011;24367;51.640;9.566;2022-12-31T12:16:45;9.82;;;1.50;;
38609;SDS011;24367;51.640;9.566;2022-12-31T12:19:15;3.90;;;1.58;;
38609;SDS011;24367;51.640;9.566;2022-12-31T12:21:44;4.40;;;0.95;;
38609;SDS011;24367;51.640;9.566;2022-12-31T12:24:16;10.88;;;1.23;;
38609;SDS011;24367;51.640;9.566;2022-12-31T12:26:45;3.88;;;1.42;;
38609;SDS011;24367;51.640;9.566;2022-12-31T12:29:15;8.45;;;1.40;;
38609;SDS011;24367;51.640;9.566;2022-12-31T12:31:54;5.35;;;1.15;;
38609;SDS011;24367;51.640;9.566;2022-12-31T12:34:22;5.30;;;1.20;;
38609;SDS011;24367;51.640;9.566;2022-12-31T12:36:49;7.97;;;1.50;;
38609;SDS011;24367;51.640;9.566;2022-12-31T12:39:17;4.55;;;1.30;;
38609;SDS011;24367;51.640;9.566;2022-12-31T12:41:45;5.47;;;1.30;;
38609;SDS011;24367;51.640;9.566;2022-12-31T12:44:13;5.80;;;1.38;;
38609;SDS011;24367;51.640;9.566;2022-12-31T12:46:42;5.03;;;1.17;;
38609;SDS011;24367;51.640;9.566;2022-12-31T12:49:14;5.97;;;1.55;;
38609;SDS011;24367;51.640;9.566;2022-12-31T12:51:47;5.22;;;1.38;;
38609;SDS011;24367;51.640;9.566;2022-12-31T12:54:25;5.05;;;1.20;;
38609;SDS011;24367;51.640;9.566;2022-12-31T12:57:00;5.53;;;1.60;;
38609;SDS011;24367;51.640;9.566;2022-12-31T12:59:37;3.92;;;1.15;;
38609;SDS011;24367;51.640;9.566;2022-12-31T13:02:21;4.20;;;1.30;;
38609;SDS011;24367;51.640;9.566;2022-12-31T13:05:02;7.82;;;1.67;;
38609;SDS011;24367;51.640;9.566;2022-12-31T13:07:40;5.50;;;1.48;;
38609;SDS011;24367;51.640;9.566;2022-12-31T13:10:19;5.22;;;1.73;;
38609;SDS011;24367;51.640;9.566;2022-12-31T13:12:53;9.07;;;1.40;;
38609;SDS011;24367;51.640;9.566;2022-12-31T13:15:26;5.40;;;1.33;;
38609;SDS011;24367;51.640;9.566;2022-12-31T13:17:58;5.93;;;1.55;;
38609;SDS011;24367;51.640;9.566;2022-12-31T13:20:31;6.63;;;1.30;;
38609;SDS011;24367;51.640;9.566;2022-12-31T13:23:03;3.25;;;1.10;;
38609;SDS011;24367;51.640;9.566;2022-12-31T13:25:37;4.88;;;1.25;;
38609;SDS011;24367;51.640;9.566;2022-12-31T13:28:15;6.47;;;1.15;;
38609;SDS011;24367;51.640;9.566;2022-12-31T13:30:44;4.38;;;1.73;;
38609;SDS011;24367;51.640;9.566;2022-12-31T13:33:13;5.10;;;1.55;;
38609;SDS011;24367;51.640;9.566;2022-12-31T13:35:43;4.80;;;1.20;;
38609;SDS011;24367;51.640;9.566;2022-12-31T13:38:15;7.38;;;1.70;;
38609;SDS011;24367;51.640;9.566;2022-12-31T13:40:46;11.93;;;1.70;;
38609;SDS011;24367;51.640;9.566;2022-12-31T13:43:18;3.70;;;1.45;;
38609;SDS011;24367;51.640;9.566;2022-12-31T13:45:51;7.70;;;1.25;;
38609;SDS011;24367;51.640;9.566;2022-12-31T13:48:23;7.65;;;1.88;;
38609;SDS011;24367;51.640;9.566;2022-12-31T13:50:58;5.28;;;1.17;;
38609;SDS011;24367;51.640;9.566;2022-12-31T13:53:28;6.60;;;1.35;;
38609;SDS011;24367;51.640;9.566;2022-12-31T13:55:59;3.92;;;1.08;;
38609;SDS011;24367;51.640;9.566;2022-12-31T13:58:30;5.57;;;1.48;;
38609;SDS011;24367;51.640;9.566;2022-12-31T14:00:59;4.57;;;1.27;;
38609;SDS011;24367;51.640;9.566;2022-12-31T14:03:35;4.68;;;1.77;;
38609;SDS011;24367;51.640;9.566;2022-12-31T14:06:07;3.67;;;1.45;;
38609;SDS011;24367;51.640;9.566;2022-12-31T14:08:38;3.10;;;1.45;;
38609;SDS011;24367;51.640;9.566;2022-12-31T14:11:06;4.80;;;1.20;;
38609;SDS011;24367;51.640;9.566;2022-12-31T14:13:45;4.65;;;1.23;;
38609;SDS011;24367;51.640;9.566;2022-12-31T14:16:21;3.78;;;1.33;;
38609;SDS011;24367;51.640;9.566;2022-12-31T14:18:54;2.83;;;1.23;;
38609;SDS011;24367;51.640;9.566;2022-12-31T14:21:26;5.03;;;1.50;;
38609;SDS011;24367;51.640;9.566;2022-12-31T14:23:55;3.03;;;1.20;;
38609;SDS011;24367;51.640;9.566;2022-12-31T14:26:27;5.53;;;1.65;;
38609;SDS011;24367;51.640;9.566;2022-12-31T14:28:58;5.32;;;1.73;;
38609;SDS011;24367;51.640;9.566;2022-12-31T14:31:29;4.43;;;1.45;;
38609;SDS011;24367;51.640;9.566;2022-12-31T14:53:05;6.15;;;2.55;;
38609;SDS011;24367;51.640;9.566;2022-12-31T14:55:33;7.38;;;1.85;;
38609;SDS011;24367;51.640;9.566;2022-12-31T14:58:01;8.93;;;1.65;;
38609;SDS011;24367;51.640;9.566;2022-12-31T15:00:31;8.02;;;2.00;;
38609;SDS011;24367;51.640;9.566;2022-12-31T15:02:59;8.13;;;1.90;;
38609;SDS011;24367;51.640;9.566;2022-12-31T15:05:27;6.32;;;1.88;;
38609;SDS011;24367;51.640;9.566;2022-12-31T15:08:00;4.80;;;1.63;;
38609;SDS011;24367;51.640;9.566;2022-12-31T15:10:45;5.45;;;1.92;;
38609;SDS011;24367;51.640;9.566;2022-12-31T15:13:16;5.72;;;1.85;;
38609;SDS011;24367;51.640;9.566;2022-12-31T15:15:57;4.22;;;1.48;;
38609;SDS011;24367;51.640;9.566;2022-12-31T15:18:47;3.38;;;1.67;;
38609;SDS011;24367;51.640;9.566;2022-12-31T15:21:27;6.72;;;2.00;;
38609;SDS011;24367;51.640;9.566;2022-12-31T15:24:01;6.35;;;1.95;;
38609;SDS011;24367;51.640;9.566;2022-12-31T15:26:38;5.15;;;2.08;;
38609;SDS011;24367;51.640;9.566;2022-12-31T15:29:18;7.78;;;1.85;;
38609;SDS011;24367;51.640;9.566;2022-12-31T15:31:50;7.93;;;2.40;;
38609;SDS011;24367;51.640;9.566;2022-12-31T15:34:23;8.63;;;2.08;;
38609;SDS011;24367;51.640;9.566;2022-12-31T15:36:52;6.43;;;2.63;;
38609;SDS011;24367;51.640;9.566;2022-12-31T15:39:23;8.25;;;3.65;;
38609;SDS011;24367;51.640;9.566;2022-12-31T15:41:52;8.95;;;2.70;;
38609;SDS011;24367;51.640;9.566;2022-12-31T15:44:21;6.45;;;2.65;;
38609;SDS011;24367;51.640;9.566;2022-12-31T15:46:52;11.88;;;3.10;;
38609;SDS011;24367;51.640;9.566;2022-12-31T15:49:20;7.35;;;3.17;;
38609;SDS011;24367;51.640;9.566;2022-12-31T15:51:49;8.88;;;2.70;;
38609;SDS011;24367;51.640;9.566;2022-12-31T15:54:23;10.15;;;2.80;;
38609;SDS011;24367;51.640;9.566;2022-12-31T15:56:52;4.80;;;2.60;;
38609;SDS011;24367;51.640;9.566;2022-12-31T15:59:20;6.38;;;2.25;;
38609;SDS011;24367;51.640;9.566;2022-12-31T16:01:47;8.52;;;2.60;;